Portada
METAR-TAF:

METAR-TAF

Aeropuertos :

Perpiñán, Francia

Aeropuerto de Perpiñán-Rivesaltes

latitud: 42-44N, longitud: 002-52E, altitud: 43 m

Observación

El informe se hizo hace 27 minutos, a las 15:30 UTC
Viento 5 kt del este
Temperatura 9°C
Humedad 49%
Presión 1008 hPa
Visibilidad 10 km o más
Escasas nubes a una altura de 9400 ft

METAR: LFMP 241530Z AUTO 10005KT 9999 FEW094 09/M01 Q1008 NOSIG

Hora: 16:57 (15:57 UTC)

Pronóstico

El informe se hizo hace 1 hora y 57 minutos, a las 14:00 UTC
Pronóstico válido del 24 a las 15 UTC al 25 a las 15 UTC
Viento 2 kt con dirección variable
Visibilidad 10 km o más
sin nubes por debajo de 1500 m y sin presencia de cumulonimbus.
Temporalmente
del 24 a las 18 UTC al 25 a las 05 UTC
Viento 12 kt del noroeste

TAF: LFMP 241400Z 2415/2515 VRB02KT CAVOK TEMPO 2418/2505 32012KT

Observaciones y pronósticos meteorológicos de más de 4000 aeropuertos (mensajes METAR y TAF).

Los puntos amarillos y rojos representan las estaciones disponibles.

Ponga el ratón en el punto deseado para ver el nombre de la estación.

Haga clic para ver las observaciones y los pronósticos meteorológicos.

Para cambiar el mapa : haga clic en los botones verdes con una cruz de color negro para hacer un zoom, en el botón verde con un guión para alejar o en las flechas verdes para mapas adyacentes.


METAR-TAF: